createdAt,value
2017-07-15T00:01:13.907Z,13.30
2017-07-15T00:03:42.000Z,13.40
2017-07-15T00:06:10.088Z,13.30
2017-07-15T00:08:38.179Z,13.10
2017-07-15T00:11:06.268Z,13.10
2017-07-15T00:13:34.383Z,13.20
2017-07-15T00:16:02.460Z,13.10
2017-07-15T00:18:30.549Z,13.00
2017-07-15T00:20:58.644Z,13.00
2017-07-15T00:23:26.723Z,13.00
2017-07-15T00:25:54.817Z,13.10
2017-07-15T00:28:22.904Z,13.10
2017-07-15T00:30:50.993Z,13.10
2017-07-15T00:33:19.078Z,13.10
2017-07-15T00:35:47.180Z,12.90
2017-07-15T00:38:15.272Z,12.90
2017-07-15T00:40:43.351Z,12.90
2017-07-15T00:43:11.445Z,12.90
2017-07-15T00:45:39.523Z,13.10
2017-07-15T00:48:07.618Z,13.20
2017-07-15T00:50:35.703Z,13.40
2017-07-15T00:53:03.791Z,13.30
2017-07-15T00:55:31.877Z,13.30
2017-07-15T00:58:00.027Z,13.30
2017-07-15T01:00:28.114Z,13.10
2017-07-15T01:02:57.109Z,13.20
2017-07-15T01:05:25.199Z,13.20
2017-07-15T01:07:53.290Z,13.10
2017-07-15T01:10:21.386Z,13.20
2017-07-15T01:12:49.472Z,13.20
2017-07-15T01:15:17.571Z,13.30
2017-07-15T01:17:45.652Z,13.60
2017-07-15T01:20:13.741Z,13.50
2017-07-15T01:22:41.836Z,13.30
2017-07-15T01:25:09.916Z,13.30
2017-07-15T01:27:38.013Z,13.30
2017-07-15T01:30:06.094Z,13.30
2017-07-15T01:32:34.184Z,13.00
2017-07-15T01:35:02.351Z,13.10
2017-07-15T01:37:30.452Z,13.20
2017-07-15T01:39:58.550Z,13.30
2017-07-15T01:42:26.640Z,13.30
2017-07-15T01:44:54.725Z,13.40
2017-07-15T01:47:22.831Z,13.20
2017-07-15T01:49:50.937Z,13.10
2017-07-15T01:52:19.024Z,13.20
2017-07-15T01:54:47.117Z,13.20
2017-07-15T01:57:15.198Z,13.50
2017-07-15T01:59:43.299Z,13.30
2017-07-15T02:02:11.382Z,13.20
2017-07-15T02:04:39.476Z,13.40
2017-07-15T02:07:07.560Z,13.40
2017-07-15T02:09:35.669Z,13.10
2017-07-15T02:12:03.776Z,12.80
2017-07-15T02:14:31.884Z,12.80
2017-07-15T02:16:59.980Z,12.80
2017-07-15T02:19:28.076Z,12.60
2017-07-15T02:21:56.177Z,12.80
2017-07-15T02:24:24.372Z,12.70
2017-07-15T02:26:52.463Z,12.70
2017-07-15T02:29:20.551Z,12.90
2017-07-15T02:31:48.645Z,12.70
2017-07-15T02:34:16.736Z,12.50
2017-07-15T02:36:44.849Z,12.60
2017-07-15T02:39:12.937Z,12.60
2017-07-15T02:41:41.037Z,12.60
2017-07-15T02:44:09.134Z,12.50
2017-07-15T02:46:37.228Z,12.60
2017-07-15T02:49:05.336Z,12.70
2017-07-15T02:51:33.423Z,13.00
2017-07-15T02:54:01.630Z,12.80
2017-07-15T02:56:29.716Z,13.10
2017-07-15T02:58:57.812Z,12.80
2017-07-15T03:01:25.896Z,12.50
2017-07-15T03:03:53.997Z,12.70
2017-07-15T03:06:22.079Z,12.90
2017-07-15T03:08:50.173Z,12.50
2017-07-15T03:11:18.276Z,12.70
2017-07-15T03:13:46.364Z,12.80
2017-07-15T03:16:14.459Z,12.40
2017-07-15T03:18:42.552Z,12.20
2017-07-15T03:21:10.645Z,12.20
2017-07-15T03:23:38.740Z,12.00
2017-07-15T03:26:06.837Z,11.80
2017-07-15T03:28:34.927Z,12.00
2017-07-15T03:31:03.008Z,12.00
2017-07-15T03:33:31.120Z,11.90
2017-07-15T03:35:59.216Z,11.80
2017-07-15T03:38:27.312Z,11.70
2017-07-15T03:40:55.400Z,11.70
2017-07-15T03:43:23.500Z,11.60
2017-07-15T03:45:51.587Z,11.70
2017-07-15T03:48:19.700Z,11.80
2017-07-15T03:50:47.784Z,11.70
2017-07-15T03:53:15.942Z,11.70
2017-07-15T03:55:44.032Z,11.60
2017-07-15T03:58:12.132Z,11.60
2017-07-15T04:00:40.216Z,11.80
2017-07-15T04:03:08.304Z,11.80
2017-07-15T04:05:36.396Z,11.80
2017-07-15T04:08:04.484Z,11.90
2017-07-15T04:10:32.580Z,11.80
2017-07-15T04:13:00.663Z,11.90
2017-07-15T04:15:28.763Z,11.80
2017-07-15T04:17:56.856Z,11.80
2017-07-15T04:20:24.972Z,11.80
2017-07-15T04:22:53.060Z,11.90
2017-07-15T04:25:21.158Z,12.00
2017-07-15T04:27:49.251Z,11.90
2017-07-15T04:30:17.337Z,11.90
2017-07-15T04:32:45.441Z,11.80
2017-07-15T04:35:13.540Z,11.90
2017-07-15T04:37:41.633Z,12.20
2017-07-15T04:40:09.727Z,12.20
2017-07-15T04:42:37.815Z,12.20
2017-07-15T04:45:06.004Z,12.30
2017-07-15T04:47:34.120Z,12.30
2017-07-15T04:50:02.208Z,12.30
2017-07-15T04:52:30.305Z,12.40
2017-07-15T04:54:58.402Z,12.10
2017-07-15T04:57:26.484Z,12.50
2017-07-15T04:59:54.578Z,12.50
2017-07-15T05:02:22.657Z,12.40
2017-07-15T05:04:50.748Z,12.20
2017-07-15T05:07:19.098Z,12.30
2017-07-15T05:09:47.205Z,12.50
2017-07-15T05:12:15.320Z,12.80
2017-07-15T05:14:43.509Z,13.10
2017-07-15T05:17:11.596Z,13.40
2017-07-15T05:19:39.852Z,13.50
2017-07-15T05:22:08.141Z,13.30
2017-07-15T05:24:36.242Z,13.60
2017-07-15T05:27:04.344Z,13.80
2017-07-15T05:29:32.547Z,14.10
2017-07-15T05:32:00.704Z,14.20
2017-07-15T05:34:28.909Z,14.40
2017-07-15T05:36:57.163Z,14.30
2017-07-15T05:39:25.254Z,14.50
2017-07-15T05:41:53.352Z,14.50
2017-07-15T05:44:21.452Z,14.20
2017-07-15T05:46:49.536Z,14.20
2017-07-15T05:49:17.645Z,13.70
2017-07-15T05:51:45.750Z,13.90
2017-07-15T05:54:13.844Z,14.50
2017-07-15T05:56:41.927Z,14.50
2017-07-15T05:59:10.028Z,14.70
2017-07-15T06:01:38.104Z,14.40
2017-07-15T06:04:06.289Z,14.30
2017-07-15T06:06:34.372Z,15.00
2017-07-15T06:09:02.465Z,15.30
2017-07-15T06:11:30.533Z,14.50
2017-07-15T06:13:58.627Z,15.20
2017-07-15T06:16:26.705Z,15.80
2017-07-15T06:18:54.780Z,16.00
2017-07-15T06:21:22.865Z,16.30
2017-07-15T06:23:50.939Z,16.50
2017-07-15T06:26:19.019Z,16.30
2017-07-15T06:28:47.116Z,15.70
2017-07-15T06:31:15.208Z,15.70
2017-07-15T06:33:43.331Z,15.70
2017-07-15T06:36:11.421Z,16.00
2017-07-15T06:38:39.712Z,16.60
2017-07-15T06:41:07.809Z,16.40
2017-07-15T06:43:35.888Z,16.40
2017-07-15T06:46:03.959Z,16.50
2017-07-15T06:48:32.045Z,16.40
2017-07-15T06:51:00.123Z,16.00
2017-07-15T06:53:28.204Z,15.70
2017-07-15T06:55:56.289Z,15.80
2017-07-15T06:58:24.384Z,15.50
2017-07-15T07:00:52.474Z,15.90
2017-07-15T07:03:20.552Z,16.20
2017-07-15T07:05:48.641Z,16.30
2017-07-15T07:08:16.722Z,16.40
2017-07-15T07:10:44.812Z,16.20
2017-07-15T07:13:12.892Z,16.50
2017-07-15T07:15:40.975Z,16.70
2017-07-15T07:18:09.064Z,17.10
2017-07-15T07:20:37.147Z,17.30
2017-07-15T07:23:05.403Z,17.60
2017-07-15T07:25:33.491Z,18.00
2017-07-15T07:28:01.745Z,18.50
2017-07-15T07:30:29.846Z,18.20
2017-07-15T07:32:57.932Z,17.80
2017-07-15T07:35:26.037Z,18.40
2017-07-15T07:37:54.120Z,17.60
2017-07-15T07:40:22.218Z,17.90
2017-07-15T07:42:50.294Z,17.60
2017-07-15T07:45:18.363Z,17.20
2017-07-15T07:47:47.273Z,17.30
2017-07-15T07:50:15.348Z,16.70
2017-07-15T07:52:43.448Z,17.30
2017-07-15T07:55:11.592Z,17.90
2017-07-15T07:57:39.676Z,18.10
2017-07-15T08:00:07.761Z,18.10
2017-07-15T08:02:35.851Z,18.50
2017-07-15T08:05:03.943Z,18.60
2017-07-15T08:07:32.033Z,18.30
2017-07-15T08:10:00.113Z,18.00
2017-07-15T08:12:28.183Z,18.00
2017-07-15T08:14:56.269Z,18.10
2017-07-15T08:17:24.353Z,18.30
2017-07-15T08:19:52.445Z,17.60
2017-07-15T08:22:20.531Z,17.30
2017-07-15T08:24:48.621Z,17.10
2017-07-15T08:27:16.703Z,17.40
2017-07-15T08:29:44.782Z,18.10
2017-07-15T08:32:12.857Z,18.90
2017-07-15T08:34:40.961Z,19.60
2017-07-15T08:37:09.060Z,20.40
2017-07-15T08:39:37.157Z,20.80
2017-07-15T08:42:05.250Z,21.10
2017-07-15T08:44:33.328Z,20.70
2017-07-15T08:47:01.419Z,20.30
2017-07-15T08:49:29.500Z,20.90
2017-07-15T08:51:57.587Z,21.50
2017-07-15T08:54:25.655Z,20.70
2017-07-15T08:56:53.742Z,20.90
2017-07-15T08:59:21.824Z,20.40
2017-07-15T09:01:49.918Z,19.20
2017-07-15T09:04:18.009Z,19.00
2017-07-15T09:06:46.096Z,19.00
2017-07-15T09:09:14.176Z,18.50
2017-07-15T09:11:42.276Z,19.20
2017-07-15T09:14:10.449Z,19.60
2017-07-15T09:16:38.525Z,19.50
2017-07-15T09:19:06.667Z,18.90
2017-07-15T09:21:34.747Z,17.80
2017-07-15T09:24:02.837Z,19.10
2017-07-15T09:26:30.925Z,20.20
2017-07-15T09:28:59.019Z,20.40
2017-07-15T09:31:27.100Z,19.40
2017-07-15T09:33:55.189Z,19.20
2017-07-15T09:36:23.272Z,19.20
2017-07-15T09:38:51.356Z,18.90
2017-07-15T09:41:19.501Z,19.40
2017-07-15T09:43:47.761Z,19.70
2017-07-15T09:46:15.890Z,20.00
2017-07-15T09:48:44.194Z,20.50
2017-07-15T09:51:12.280Z,21.80
2017-07-15T09:53:41.256Z,21.00
2017-07-15T09:56:09.344Z,21.00
2017-07-15T09:58:37.439Z,20.80
2017-07-15T10:01:05.536Z,21.60
2017-07-15T10:03:33.615Z,22.60
2017-07-15T10:06:01.686Z,23.40
2017-07-15T10:08:29.777Z,22.20
2017-07-15T10:10:57.856Z,21.80
2017-07-15T10:13:25.985Z,23.00
2017-07-15T10:15:54.060Z,21.50
2017-07-15T10:18:22.143Z,18.60
2017-07-15T10:20:50.229Z,19.50
2017-07-15T10:23:18.324Z,20.80
2017-07-15T10:25:46.410Z,22.20
2017-07-15T10:28:14.490Z,23.00
2017-07-15T10:30:42.565Z,23.90
2017-07-15T10:33:10.644Z,24.50
2017-07-15T10:35:38.728Z,23.80
2017-07-15T10:38:06.804Z,22.30
2017-07-15T10:40:34.898Z,21.70
2017-07-15T10:43:02.983Z,21.10
2017-07-15T10:45:31.060Z,21.80
2017-07-15T10:47:59.214Z,22.00
2017-07-15T10:50:27.355Z,22.40
2017-07-15T10:52:55.488Z,22.10
2017-07-15T10:55:23.568Z,22.30
2017-07-15T10:57:51.655Z,22.40
2017-07-15T11:00:19.769Z,22.40
2017-07-15T11:02:47.869Z,22.30
2017-07-15T11:05:16.113Z,22.30
2017-07-15T11:07:44.192Z,21.90
2017-07-15T11:10:12.284Z,21.50
2017-07-15T11:12:40.520Z,21.20
2017-07-15T11:15:08.610Z,20.70
2017-07-15T11:17:36.685Z,20.70
2017-07-15T11:20:04.776Z,20.80
2017-07-15T11:22:32.851Z,21.00
2017-07-15T11:25:00.945Z,21.40
2017-07-15T11:27:29.037Z,21.80
2017-07-15T11:29:57.113Z,22.10
2017-07-15T11:32:25.196Z,21.90
2017-07-15T11:34:53.295Z,21.40
2017-07-15T11:37:21.380Z,20.90
2017-07-15T11:39:49.457Z,20.40
2017-07-15T11:42:17.538Z,19.90
2017-07-15T11:44:45.628Z,19.70
2017-07-15T11:47:13.713Z,19.60
2017-07-15T11:49:41.799Z,19.50
2017-07-15T11:52:09.881Z,19.50
2017-07-15T11:54:37.955Z,19.70
2017-07-15T11:57:06.039Z,19.40
2017-07-15T11:59:34.115Z,19.70
2017-07-15T12:02:02.221Z,20.20
2017-07-15T12:04:30.296Z,20.50
2017-07-15T12:06:58.377Z,20.90
2017-07-15T12:09:26.477Z,21.50
2017-07-15T12:11:54.553Z,22.10
2017-07-15T12:14:22.693Z,22.60
2017-07-15T12:16:50.951Z,23.10
2017-07-15T12:19:19.034Z,23.30
2017-07-15T12:21:47.105Z,23.30
2017-07-15T12:24:15.195Z,23.10
2017-07-15T12:26:43.273Z,22.60
2017-07-15T12:29:11.356Z,22.50
2017-07-15T12:31:39.444Z,22.20
2017-07-15T12:34:07.528Z,22.10
2017-07-15T12:36:35.613Z,21.80
2017-07-15T12:39:03.716Z,21.60
2017-07-15T12:41:31.820Z,21.30
2017-07-15T12:43:59.905Z,21.10
2017-07-15T12:46:27.992Z,21.10
2017-07-15T12:48:56.071Z,21.20
2017-07-15T12:51:24.161Z,21.10
2017-07-15T12:53:52.243Z,21.30
2017-07-15T12:56:20.329Z,21.50
2017-07-15T12:58:48.553Z,21.40
2017-07-15T13:01:16.650Z,21.20
2017-07-15T13:03:44.728Z,21.10
2017-07-15T13:06:12.806Z,21.10
2017-07-15T13:08:40.906Z,21.10
2017-07-15T13:11:09.008Z,20.80
2017-07-15T13:13:37.078Z,20.40
2017-07-15T13:16:05.158Z,20.70
2017-07-15T13:18:33.239Z,20.60
2017-07-15T13:21:01.316Z,20.70
2017-07-15T13:23:29.400Z,21.00
2017-07-15T13:25:57.486Z,21.70
2017-07-15T13:28:25.561Z,22.20
2017-07-15T13:30:53.657Z,22.50
2017-07-15T13:33:21.748Z,22.30
2017-07-15T13:35:49.825Z,22.50
2017-07-15T13:38:18.116Z,22.70
2017-07-15T13:40:46.199Z,22.20
2017-07-15T13:43:14.291Z,22.40
2017-07-15T13:45:42.397Z,22.30
2017-07-15T13:48:10.482Z,22.30
2017-07-15T13:50:38.564Z,22.10
2017-07-15T13:53:06.650Z,22.30
2017-07-15T13:55:34.731Z,22.30
2017-07-15T13:58:02.813Z,22.10
2017-07-15T14:00:31.709Z,21.90
2017-07-15T14:02:59.784Z,22.10
2017-07-15T14:05:27.851Z,22.10
2017-07-15T14:07:55.947Z,21.90
2017-07-15T14:10:24.036Z,21.60
2017-07-15T14:12:52.125Z,21.50
2017-07-15T14:15:20.209Z,21.30
2017-07-15T14:17:48.300Z,21.00
2017-07-15T14:20:16.392Z,21.30
2017-07-15T14:22:44.487Z,21.30
2017-07-15T14:25:12.564Z,21.30
2017-07-15T14:27:40.659Z,21.30
2017-07-15T14:30:08.750Z,20.90
2017-07-15T14:32:36.827Z,21.10
2017-07-15T14:35:04.915Z,21.10
2017-07-15T14:37:33.001Z,21.20
2017-07-15T14:40:01.088Z,20.80
2017-07-15T14:42:29.168Z,21.00
2017-07-15T14:44:57.260Z,21.00
2017-07-15T14:47:25.340Z,21.20
2017-07-15T14:49:53.441Z,21.20
2017-07-15T14:52:21.510Z,21.30
2017-07-15T14:54:49.600Z,21.50
2017-07-15T14:57:17.681Z,21.80
2017-07-15T14:59:45.755Z,21.90
2017-07-15T15:02:13.844Z,22.00
2017-07-15T15:04:41.923Z,21.80
2017-07-15T15:07:10.417Z,21.60
2017-07-15T15:09:38.501Z,21.30
2017-07-15T15:12:06.593Z,21.20
2017-07-15T15:14:34.660Z,20.60
2017-07-15T15:17:02.750Z,20.50
2017-07-15T15:19:30.846Z,20.40
2017-07-15T15:21:58.936Z,20.20
2017-07-15T15:24:27.027Z,20.40
2017-07-15T15:26:55.117Z,20.50
2017-07-15T15:29:23.200Z,20.50
2017-07-15T15:31:51.277Z,20.40
2017-07-15T15:34:19.361Z,20.20
2017-07-15T15:36:47.464Z,20.10
2017-07-15T15:39:15.539Z,20.00
2017-07-15T15:41:43.630Z,20.00
2017-07-15T15:44:11.729Z,20.00
2017-07-15T15:46:39.832Z,19.70
2017-07-15T15:49:07.912Z,19.70
2017-07-15T15:51:35.991Z,19.60
2017-07-15T15:54:04.077Z,19.50
2017-07-15T15:56:32.165Z,19.50
2017-07-15T15:59:00.259Z,19.50
2017-07-15T16:01:28.342Z,19.40
2017-07-15T16:03:56.416Z,19.50
2017-07-15T16:06:24.508Z,19.60
2017-07-15T16:08:52.596Z,19.70
2017-07-15T16:11:20.683Z,19.70
2017-07-15T16:13:48.757Z,19.70
2017-07-15T16:16:16.845Z,19.70
2017-07-15T16:18:44.941Z,19.80
2017-07-15T16:21:13.079Z,19.90
2017-07-15T16:23:41.159Z,19.90
2017-07-15T16:26:09.250Z,19.90
2017-07-15T16:28:37.326Z,19.80
2017-07-15T16:31:05.424Z,19.90
2017-07-15T16:33:33.511Z,19.80
2017-07-15T16:36:01.597Z,19.80
2017-07-15T16:38:29.694Z,19.80
2017-07-15T16:40:57.760Z,19.80
2017-07-15T16:43:25.844Z,19.80
2017-07-15T16:45:53.930Z,19.80
2017-07-15T16:48:22.025Z,19.70
2017-07-15T16:50:50.115Z,19.70
2017-07-15T16:53:18.197Z,19.40
2017-07-15T16:55:46.278Z,19.30
2017-07-15T16:58:14.358Z,19.30
2017-07-15T17:00:42.455Z,19.20
2017-07-15T17:03:10.565Z,19.40
2017-07-15T17:05:38.649Z,19.40
2017-07-15T17:08:06.733Z,19.40
2017-07-15T17:10:34.816Z,19.30
2017-07-15T17:13:02.897Z,19.10
2017-07-15T17:15:30.997Z,18.80
2017-07-15T17:17:59.067Z,19.00
2017-07-15T17:20:27.160Z,19.10
2017-07-15T17:22:55.244Z,18.90
2017-07-15T17:25:23.333Z,18.80
2017-07-15T17:27:51.415Z,18.90
2017-07-15T17:30:19.510Z,18.90
2017-07-15T17:32:47.581Z,18.90
2017-07-15T17:35:15.659Z,18.70
2017-07-15T17:37:43.745Z,18.60
2017-07-15T17:40:11.825Z,18.60
2017-07-15T17:42:39.911Z,18.60
2017-07-15T17:45:07.987Z,18.60
2017-07-15T17:47:36.072Z,18.60
2017-07-15T17:50:04.165Z,18.60
2017-07-15T17:52:32.255Z,18.60
2017-07-15T17:55:00.379Z,18.60
2017-07-15T17:57:28.471Z,18.50
2017-07-15T17:59:56.776Z,18.40
2017-07-15T18:02:24.926Z,18.20
2017-07-15T18:04:53.021Z,18.20
2017-07-15T18:07:21.117Z,18.10
2017-07-15T18:09:49.208Z,18.30
2017-07-15T18:12:17.295Z,18.30
2017-07-15T18:14:45.400Z,18.30
2017-07-15T18:17:13.477Z,18.30
2017-07-15T18:19:41.569Z,18.10
2017-07-15T18:22:09.655Z,18.00
2017-07-15T18:24:37.888Z,18.00
2017-07-15T18:27:05.972Z,18.00
2017-07-15T18:29:34.071Z,17.90
2017-07-15T18:32:02.157Z,17.80
2017-07-15T18:34:30.235Z,17.80
2017-07-15T18:36:58.319Z,17.80
2017-07-15T18:39:26.416Z,17.70
2017-07-15T18:41:54.496Z,17.70
2017-07-15T18:44:22.577Z,17.70
2017-07-15T18:46:50.660Z,17.50
2017-07-15T18:49:18.731Z,17.40
2017-07-15T18:51:46.826Z,17.60
2017-07-15T18:54:14.904Z,17.60
2017-07-15T18:56:43.013Z,17.70
2017-07-15T18:59:11.088Z,17.60
2017-07-15T19:01:39.164Z,17.60
2017-07-15T19:04:07.252Z,17.70
2017-07-15T19:06:35.328Z,17.60
2017-07-15T19:09:03.416Z,17.50
2017-07-15T19:11:31.493Z,17.60
2017-07-15T19:13:59.585Z,17.50
2017-07-15T19:16:27.680Z,17.50
2017-07-15T19:18:55.768Z,17.50
2017-07-15T19:21:23.844Z,17.40
2017-07-15T19:23:51.919Z,17.10
2017-07-15T19:26:20.010Z,17.10
2017-07-15T19:28:48.094Z,17.00
2017-07-15T19:31:16.171Z,16.90
2017-07-15T19:33:44.251Z,16.60
2017-07-15T19:36:12.343Z,16.60
2017-07-15T19:38:40.425Z,16.80
2017-07-15T19:41:08.514Z,16.80
2017-07-15T19:43:36.595Z,16.90
2017-07-15T19:46:04.685Z,17.00
2017-07-15T19:48:32.765Z,16.90
2017-07-15T19:51:00.840Z,16.40
2017-07-15T19:53:28.972Z,16.60
2017-07-15T19:55:56.992Z,16.50
2017-07-15T19:58:25.081Z,16.50
2017-07-15T20:00:53.179Z,16.60
2017-07-15T20:03:21.258Z,16.70
2017-07-15T20:05:49.337Z,16.70
2017-07-15T20:08:17.422Z,16.70
2017-07-15T20:10:45.496Z,16.70
2017-07-15T20:13:13.580Z,16.50
2017-07-15T20:15:41.655Z,16.30
2017-07-15T20:18:09.750Z,16.00
2017-07-15T20:20:37.825Z,15.70
2017-07-15T20:23:05.902Z,15.70
2017-07-15T20:25:33.996Z,15.60
2017-07-15T20:28:02.077Z,15.60
2017-07-15T20:30:30.163Z,15.80
2017-07-15T20:32:58.238Z,15.90
2017-07-15T20:35:26.437Z,15.80
2017-07-15T20:37:54.515Z,15.60
2017-07-15T20:40:22.752Z,15.60
2017-07-15T20:42:50.828Z,15.50
2017-07-15T20:45:18.911Z,15.40
2017-07-15T20:47:47.002Z,15.30
2017-07-15T20:50:15.076Z,15.20
2017-07-15T20:52:48.937Z,14.90
2017-07-15T20:55:17.017Z,14.90
2017-07-15T20:57:45.127Z,15.10
2017-07-15T21:00:13.201Z,15.10
2017-07-15T21:02:41.278Z,15.20
2017-07-15T21:05:09.365Z,15.30
2017-07-15T21:07:37.445Z,15.30
2017-07-15T21:10:05.524Z,15.10
2017-07-15T21:12:33.811Z,15.00
2017-07-15T21:15:01.883Z,14.50
2017-07-15T21:17:29.972Z,14.60
2017-07-15T21:19:58.052Z,14.70
2017-07-15T21:22:26.132Z,14.60
2017-07-15T21:24:54.222Z,14.40
2017-07-15T21:27:22.300Z,14.40
2017-07-15T21:29:50.451Z,14.70
2017-07-15T21:32:18.514Z,14.70
2017-07-15T21:34:46.612Z,14.70
2017-07-15T21:37:14.691Z,14.70
2017-07-15T21:39:42.771Z,14.80
2017-07-15T21:42:10.857Z,14.80
2017-07-15T21:44:38.943Z,14.80
2017-07-15T21:47:07.039Z,14.80
2017-07-15T21:49:35.138Z,14.40
2017-07-15T21:52:03.197Z,14.40
2017-07-15T21:54:31.293Z,14.40
2017-07-15T21:56:59.379Z,14.20
2017-07-15T21:59:27.452Z,14.20
2017-07-15T22:01:55.540Z,13.90
2017-07-15T22:04:23.605Z,14.10
2017-07-15T22:06:51.693Z,14.20
2017-07-15T22:09:19.776Z,14.40
2017-07-15T22:11:47.900Z,14.30
2017-07-15T22:14:15.975Z,14.40
2017-07-15T22:16:44.068Z,14.40
2017-07-15T22:19:12.183Z,14.30
2017-07-15T22:21:40.388Z,14.30
2017-07-15T22:24:08.654Z,14.30
2017-07-15T22:26:36.735Z,14.30
2017-07-15T22:29:04.824Z,14.30
2017-07-15T22:31:32.906Z,14.30
2017-07-15T22:34:00.984Z,14.20
2017-07-15T22:36:29.212Z,14.20
2017-07-15T22:38:57.309Z,14.10
2017-07-15T22:41:25.380Z,14.10
2017-07-15T22:43:53.829Z,14.00
2017-07-15T22:46:21.917Z,13.90
2017-07-15T22:48:50.040Z,13.90
2017-07-15T22:51:18.126Z,13.90
2017-07-15T22:53:46.206Z,13.80
2017-07-15T22:56:14.296Z,13.80
2017-07-15T22:58:43.144Z,13.80
2017-07-15T23:01:11.340Z,13.80
2017-07-15T23:03:39.437Z,13.70
2017-07-15T23:06:07.685Z,13.20
2017-07-15T23:08:35.776Z,13.20
2017-07-15T23:11:03.849Z,13.30
2017-07-15T23:13:31.930Z,13.20
2017-07-15T23:16:00.016Z,13.40
2017-07-15T23:18:28.103Z,13.40
2017-07-15T23:20:56.192Z,13.50
2017-07-15T23:23:24.276Z,13.50
2017-07-15T23:25:52.458Z,13.50
2017-07-15T23:28:20.604Z,13.30
2017-07-15T23:30:48.685Z,13.40
2017-07-15T23:33:16.776Z,13.30
2017-07-15T23:35:45.636Z,12.90
2017-07-15T23:38:13.824Z,12.90
2017-07-15T23:40:41.922Z,12.70
2017-07-15T23:43:10.019Z,12.60
2017-07-15T23:45:38.108Z,12.50
2017-07-15T23:48:06.200Z,12.20
2017-07-15T23:50:34.292Z,12.60
2017-07-15T23:53:02.372Z,12.50
2017-07-15T23:55:30.460Z,12.60
2017-07-15T23:57:58.556Z,12.70
